sensor_id;sensor_type;location;lat;lon;timestamp;pressure;altitude;pressure_sealevel;temperature;humidity
35716;BME280;21840;44.920;8.616;2023-02-22T00:00:39;100749.28;;;14.08;48.79
35716;BME280;21840;44.920;8.616;2023-02-22T00:03:25;100752.84;;;13.71;49.54
35716;BME280;21840;44.920;8.616;2023-02-22T00:05:53;100749.94;;;13.64;49.43
35716;BME280;21840;44.920;8.616;2023-02-22T00:08:22;100749.22;;;13.99;49.10
35716;BME280;21840;44.920;8.616;2023-02-22T00:10:48;100751.53;;;14.02;48.99
35716;BME280;21840;44.920;8.616;2023-02-22T00:13:17;100742.16;;;13.90;49.43
35716;BME280;21840;44.920;8.616;2023-02-22T00:15:44;100741.06;;;13.93;49.45
35716;BME280;21840;44.920;8.616;2023-02-22T00:18:15;100753.84;;;13.88;49.18
35716;BME280;21840;44.920;8.616;2023-02-22T00:20:41;100743.41;;;13.96;49.29
35716;BME280;21840;44.920;8.616;2023-02-22T00:23:08;100743.13;;;14.17;48.93
35716;BME280;21840;44.920;8.616;2023-02-22T00:25:34;100743.38;;;14.41;48.46
35716;BME280;21840;44.920;8.616;2023-02-22T00:28:00;100742.75;;;14.12;48.79
35716;BME280;21840;44.920;8.616;2023-02-22T00:30:28;100744.44;;;14.13;48.84
35716;BME280;21840;44.920;8.616;2023-02-22T00:32:56;100746.75;;;14.61;47.98
35716;BME280;21840;44.920;8.616;2023-02-22T00:35:24;100749.81;;;14.75;47.86
35716;BME280;21840;44.920;8.616;2023-02-22T00:37:56;100747.91;;;14.85;47.68
35716;BME280;21840;44.920;8.616;2023-02-22T00:40:27;100737.97;;;15.05;46.98
35716;BME280;21840;44.920;8.616;2023-02-22T00:42:56;100743.06;;;15.24;46.55
35716;BME280;21840;44.920;8.616;2023-02-22T00:45:23;100737.78;;;15.24;46.23
35716;BME280;21840;44.920;8.616;2023-02-22T00:47:49;100734.88;;;15.09;46.30
35716;BME280;21840;44.920;8.616;2023-02-22T00:50:16;100740.63;;;14.61;47.65
35716;BME280;21840;44.920;8.616;2023-02-22T00:52:43;100735.25;;;14.53;47.81
35716;BME280;21840;44.920;8.616;2023-02-22T00:55:13;100732.31;;;14.56;47.79
35716;BME280;21840;44.920;8.616;2023-02-22T00:57:40;100735.53;;;14.50;47.83
35716;BME280;21840;44.920;8.616;2023-02-22T01:00:08;100738.81;;;14.61;47.50
35716;BME280;21840;44.920;8.616;2023-02-22T01:02:41;100733.84;;;14.58;47.71
35716;BME280;21840;44.920;8.616;2023-02-22T01:05:09;100732.75;;;14.69;47.41
35716;BME280;21840;44.920;8.616;2023-02-22T01:07:37;100732.97;;;14.94;46.76
35716;BME280;21840;44.920;8.616;2023-02-22T01:10:05;100731.06;;;14.32;47.87
35716;BME280;21840;44.920;8.616;2023-02-22T01:12:30;100730.06;;;14.61;47.42
35716;BME280;21840;44.920;8.616;2023-02-22T01:14:56;100737.56;;;13.92;48.93
35716;BME280;21840;44.920;8.616;2023-02-22T01:17:25;100731.69;;;13.80;48.95
35716;BME280;21840;44.920;8.616;2023-02-22T01:19:52;100727.22;;;14.44;47.48
35716;BME280;21840;44.920;8.616;2023-02-22T01:22:18;100724.25;;;14.12;47.83
35716;BME280;21840;44.920;8.616;2023-02-22T01:24:49;100729.66;;;13.92;48.69
35716;BME280;21840;44.920;8.616;2023-02-22T01:27:16;100726.06;;;13.93;48.61
35716;BME280;21840;44.920;8.616;2023-02-22T01:29:41;100731.41;;;13.74;49.18
35716;BME280;21840;44.920;8.616;2023-02-22T01:32:07;100719.06;;;13.74;49.13
35716;BME280;21840;44.920;8.616;2023-02-22T01:34:33;100721.50;;;13.58;49.45
35716;BME280;21840;44.920;8.616;2023-02-22T01:36:59;100722.13;;;13.97;48.76
35716;BME280;21840;44.920;8.616;2023-02-22T01:39:26;100715.09;;;13.88;49.29
35716;BME280;21840;44.920;8.616;2023-02-22T01:41:51;100715.19;;;13.96;48.86
35716;BME280;21840;44.920;8.616;2023-02-22T01:44:32;100700.44;;;14.21;48.49
35716;BME280;21840;44.920;8.616;2023-02-22T01:47:00;100703.38;;;14.18;48.58
35716;BME280;21840;44.920;8.616;2023-02-22T01:50:06;100707.47;;;14.31;48.19
35716;BME280;21840;44.920;8.616;2023-02-22T01:52:24;100696.50;;;14.43;48.03
35716;BME280;21840;44.920;8.616;2023-02-22T01:54:55;100701.09;;;14.77;47.21
35716;BME280;21840;44.920;8.616;2023-02-22T01:57:33;100694.91;;;14.15;48.43
35716;BME280;21840;44.920;8.616;2023-02-22T02:00:07;100693.03;;;13.79;49.18
35716;BME280;21840;44.920;8.616;2023-02-22T02:02:44;100699.66;;;14.11;48.91
35716;BME280;21840;44.920;8.616;2023-02-22T02:05:10;100693.00;;;13.89;49.30
35716;BME280;21840;44.920;8.616;2023-02-22T02:07:37;100696.28;;;14.19;48.76
35716;BME280;21840;44.920;8.616;2023-02-22T02:10:08;100689.16;;;14.37;47.94
35716;BME280;21840;44.920;8.616;2023-02-22T02:12:39;100695.00;;;14.59;47.74
35716;BME280;21840;44.920;8.616;2023-02-22T02:15:26;100685.03;;;14.53;47.34
35716;BME280;21840;44.920;8.616;2023-02-22T02:17:54;100685.91;;;14.79;46.99
35716;BME280;21840;44.920;8.616;2023-02-22T02:23:41;100681.16;;;14.83;46.84
35716;BME280;21840;44.920;8.616;2023-02-22T02:32:18;100676.28;;;14.34;48.10
35716;BME280;21840;44.920;8.616;2023-02-22T02:35:11;100678.97;;;14.42;47.96
35716;BME280;21840;44.920;8.616;2023-02-22T02:41:06;100667.66;;;13.96;48.77
35716;BME280;21840;44.920;8.616;2023-02-22T02:43:52;100668.53;;;13.87;48.97
35716;BME280;21840;44.920;8.616;2023-02-22T02:49:00;100658.78;;;14.33;48.30
35716;BME280;21840;44.920;8.616;2023-02-22T02:51:31;100657.34;;;14.21;48.59
35716;BME280;21840;44.920;8.616;2023-02-22T02:53:59;100663.13;;;14.24;48.52
35716;BME280;21840;44.920;8.616;2023-02-22T02:56:26;100654.69;;;14.21;48.47
35716;BME280;21840;44.920;8.616;2023-02-22T02:58:53;100657.78;;;14.16;48.30
35716;BME280;21840;44.920;8.616;2023-02-22T03:04:00;100650.41;;;14.56;47.79
35716;BME280;21840;44.920;8.616;2023-02-22T03:06:39;100653.25;;;14.44;47.57
35716;BME280;21840;44.920;8.616;2023-02-22T03:12:11;100646.91;;;14.19;48.19
35716;BME280;21840;44.920;8.616;2023-02-22T03:14:52;100651.66;;;14.52;47.72
35716;BME280;21840;44.920;8.616;2023-02-22T03:20:18;100648.56;;;14.38;47.83
35716;BME280;21840;44.920;8.616;2023-02-22T03:25:38;100648.66;;;14.11;48.78
35716;BME280;21840;44.920;8.616;2023-02-22T03:28:09;100647.97;;;13.73;49.45
35716;BME280;21840;44.920;8.616;2023-02-22T03:30:41;100644.66;;;14.07;49.11
35716;BME280;21840;44.920;8.616;2023-02-22T03:33:13;100647.59;;;14.03;48.66
35716;BME280;21840;44.920;8.616;2023-02-22T03:35:49;100642.47;;;14.38;47.92
35716;BME280;21840;44.920;8.616;2023-02-22T03:38:23;100648.03;;;14.53;47.32
35716;BME280;21840;44.920;8.616;2023-02-22T03:40:53;100648.03;;;14.35;47.43
35716;BME280;21840;44.920;8.616;2023-02-22T03:43:30;100651.44;;;13.91;48.66
35716;BME280;21840;44.920;8.616;2023-02-22T03:46:00;100647.44;;;13.87;48.93
35716;BME280;21840;44.920;8.616;2023-02-22T03:48:37;100651.31;;;13.93;48.94
35716;BME280;21840;44.920;8.616;2023-02-22T03:51:05;100642.75;;;14.17;48.45
35716;BME280;21840;44.920;8.616;2023-02-22T03:53:32;100652.94;;;14.12;48.57
35716;BME280;21840;44.920;8.616;2023-02-22T03:56:04;100646.47;;;14.06;48.88
35716;BME280;21840;44.920;8.616;2023-02-22T03:58:34;100653.91;;;14.46;47.81
35716;BME280;21840;44.920;8.616;2023-02-22T04:01:01;100651.91;;;14.40;47.73
35716;BME280;21840;44.920;8.616;2023-02-22T04:03:27;100654.22;;;14.43;47.99
35716;BME280;21840;44.920;8.616;2023-02-22T04:05:53;100658.53;;;14.62;47.44
35716;BME280;21840;44.920;8.616;2023-02-22T04:08:20;100652.41;;;14.62;47.30
35716;BME280;21840;44.920;8.616;2023-02-22T04:10:46;100651.13;;;14.66;47.36
35716;BME280;21840;44.920;8.616;2023-02-22T04:13:15;100652.03;;;14.57;47.75
35716;BME280;21840;44.920;8.616;2023-02-22T04:15:44;100652.66;;;14.15;48.35
35716;BME280;21840;44.920;8.616;2023-02-22T04:18:11;100659.66;;;14.42;48.12
35716;BME280;21840;44.920;8.616;2023-02-22T04:20:36;100655.84;;;14.00;48.67
35716;BME280;21840;44.920;8.616;2023-02-22T04:23:11;100661.72;;;14.48;47.97
35716;BME280;21840;44.920;8.616;2023-02-22T04:25:39;100644.19;;;14.47;47.96
35716;BME280;21840;44.920;8.616;2023-02-22T04:28:11;100648.53;;;14.74;47.27
35716;BME280;21840;44.920;8.616;2023-02-22T04:30:56;100655.75;;;14.46;48.05
35716;BME280;21840;44.920;8.616;2023-02-22T04:33:22;100647.84;;;14.28;48.35
35716;BME280;21840;44.920;8.616;2023-02-22T04:35:48;100648.66;;;13.93;49.07
35716;BME280;21840;44.920;8.616;2023-02-22T04:38:13;100643.38;;;13.93;48.95
35716;BME280;21840;44.920;8.616;2023-02-22T04:40:39;100645.25;;;14.54;47.76
35716;BME280;21840;44.920;8.616;2023-02-22T04:43:05;100653.91;;;14.46;48.20
35716;BME280;21840;44.920;8.616;2023-02-22T04:45:31;100653.78;;;14.92;47.13
35716;BME280;21840;44.920;8.616;2023-02-22T04:47:58;100652.41;;;14.62;47.85
35716;BME280;21840;44.920;8.616;2023-02-22T04:50:24;100646.34;;;14.70;47.70
35716;BME280;21840;44.920;8.616;2023-02-22T04:52:49;100646.31;;;14.87;47.54
35716;BME280;21840;44.920;8.616;2023-02-22T04:55:15;100649.63;;;15.16;46.64
35716;BME280;21840;44.920;8.616;2023-02-22T04:57:42;100647.13;;;15.14;46.63
35716;BME280;21840;44.920;8.616;2023-02-22T05:00:08;100655.75;;;14.64;47.74
35716;BME280;21840;44.920;8.616;2023-02-22T05:02:38;100647.28;;;14.42;48.27
35716;BME280;21840;44.920;8.616;2023-02-22T05:05:04;100655.81;;;14.54;48.02
35716;BME280;21840;44.920;8.616;2023-02-22T05:07:30;100657.59;;;14.72;47.58
35716;BME280;21840;44.920;8.616;2023-02-22T05:09:55;100654.31;;;14.34;48.24
35716;BME280;21840;44.920;8.616;2023-02-22T05:12:20;100659.88;;;14.66;47.71
35716;BME280;21840;44.920;8.616;2023-02-22T05:14:46;100650.22;;;14.57;47.96
35716;BME280;21840;44.920;8.616;2023-02-22T05:17:11;100652.22;;;14.55;47.98
35716;BME280;21840;44.920;8.616;2023-02-22T05:19:37;100648.44;;;14.58;47.98
35716;BME280;21840;44.920;8.616;2023-02-22T05:22:03;100652.94;;;14.30;48.54
35716;BME280;21840;44.920;8.616;2023-02-22T05:24:30;100656.13;;;14.15;48.69
35716;BME280;21840;44.920;8.616;2023-02-22T05:26:56;100650.16;;;13.95;49.05
35716;BME280;21840;44.920;8.616;2023-02-22T05:29:22;100648.13;;;14.25;48.53
35716;BME280;21840;44.920;8.616;2023-02-22T05:31:47;100653.94;;;14.11;48.81
35716;BME280;21840;44.920;8.616;2023-02-22T05:34:13;100649.03;;;13.98;49.27
35716;BME280;21840;44.920;8.616;2023-02-22T05:36:39;100642.44;;;13.84;49.85
35716;BME280;21840;44.920;8.616;2023-02-22T05:39:04;100640.25;;;13.97;49.29
35716;BME280;21840;44.920;8.616;2023-02-22T05:41:30;100643.81;;;13.88;49.29
35716;BME280;21840;44.920;8.616;2023-02-22T05:43:55;100645.94;;;14.02;48.96
35716;BME280;21840;44.920;8.616;2023-02-22T05:46:21;100641.13;;;14.16;48.63
35716;BME280;21840;44.920;8.616;2023-02-22T05:48:46;100632.28;;;14.07;49.13
35716;BME280;21840;44.920;8.616;2023-02-22T05:51:12;100641.25;;;13.96;49.01
35716;BME280;21840;44.920;8.616;2023-02-22T05:53:37;100627.81;;;13.72;49.82
35716;BME280;21840;44.920;8.616;2023-02-22T05:56:03;100627.13;;;13.88;49.23
35716;BME280;21840;44.920;8.616;2023-02-22T05:58:29;100633.41;;;14.05;49.21
35716;BME280;21840;44.920;8.616;2023-02-22T06:00:54;100626.25;;;13.97;49.09
35716;BME280;21840;44.920;8.616;2023-02-22T06:03:20;100632.97;;;13.91;49.03
35716;BME280;21840;44.920;8.616;2023-02-22T06:05:45;100621.72;;;14.07;48.63
35716;BME280;21840;44.920;8.616;2023-02-22T06:08:11;100631.13;;;13.92;49.11
35716;BME280;21840;44.920;8.616;2023-02-22T06:10:36;100626.75;;;14.36;48.27
35716;BME280;21840;44.920;8.616;2023-02-22T06:13:03;100629.31;;;14.46;48.28
35716;BME280;21840;44.920;8.616;2023-02-22T06:15:29;100633.63;;;13.75;49.49
35716;BME280;21840;44.920;8.616;2023-02-22T06:17:56;100635.66;;;13.81;49.55
35716;BME280;21840;44.920;8.616;2023-02-22T06:20:24;100632.19;;;13.81;49.59
35716;BME280;21840;44.920;8.616;2023-02-22T06:22:52;100633.16;;;13.80;49.83
35716;BME280;21840;44.920;8.616;2023-02-22T06:25:20;100637.25;;;13.92;49.61
35716;BME280;21840;44.920;8.616;2023-02-22T06:27:48;100638.47;;;13.98;49.23
35716;BME280;21840;44.920;8.616;2023-02-22T06:30:15;100640.06;;;13.91;49.42
35716;BME280;21840;44.920;8.616;2023-02-22T06:32:40;100644.47;;;13.90;49.29
35716;BME280;21840;44.920;8.616;2023-02-22T06:35:06;100639.75;;;14.12;48.95
35716;BME280;21840;44.920;8.616;2023-02-22T06:37:32;100648.59;;;14.20;49.09
35716;BME280;21840;44.920;8.616;2023-02-22T06:39:58;100652.94;;;14.12;49.00
35716;BME280;21840;44.920;8.616;2023-02-22T06:42:23;100651.75;;;14.06;48.87
35716;BME280;21840;44.920;8.616;2023-02-22T06:44:48;100647.28;;;14.24;48.79
35716;BME280;21840;44.920;8.616;2023-02-22T06:47:14;100655.47;;;14.13;49.08
35716;BME280;21840;44.920;8.616;2023-02-22T06:49:39;100655.88;;;14.44;48.28
35716;BME280;21840;44.920;8.616;2023-02-22T06:52:06;100650.16;;;14.31;48.34
35716;BME280;21840;44.920;8.616;2023-02-22T06:54:32;100650.31;;;14.30;48.54
35716;BME280;21840;44.920;8.616;2023-02-22T06:56:57;100658.09;;;14.31;48.57
35716;BME280;21840;44.920;8.616;2023-02-22T06:59:23;100658.00;;;14.05;49.12
35716;BME280;21840;44.920;8.616;2023-02-22T07:01:48;100650.53;;;14.36;48.75
35716;BME280;21840;44.920;8.616;2023-02-22T07:04:14;100666.63;;;14.61;48.11
35716;BME280;21840;44.920;8.616;2023-02-22T07:06:47;100655.75;;;14.28;48.48
35716;BME280;21840;44.920;8.616;2023-02-22T07:09:14;100667.06;;;14.56;48.09
35716;BME280;21840;44.920;8.616;2023-02-22T07:11:40;100663.72;;;14.72;48.07
35716;BME280;21840;44.920;8.616;2023-02-22T07:14:06;100666.06;;;14.75;48.08
35716;BME280;21840;44.920;8.616;2023-02-22T07:16:31;100666.53;;;14.53;48.65
35716;BME280;21840;44.920;8.616;2023-02-22T07:18:58;100667.91;;;14.57;48.13
35716;BME280;21840;44.920;8.616;2023-02-22T07:21:25;100667.81;;;14.49;48.28
35716;BME280;21840;44.920;8.616;2023-02-22T07:23:52;100668.88;;;14.74;47.75
35716;BME280;21840;44.920;8.616;2023-02-22T07:26:18;100667.78;;;15.10;47.08
35716;BME280;21840;44.920;8.616;2023-02-22T07:28:43;100669.63;;;14.66;47.99
35716;BME280;21840;44.920;8.616;2023-02-22T07:31:09;100666.81;;;14.50;48.76
35716;BME280;21840;44.920;8.616;2023-02-22T07:33:34;100672.94;;;14.32;49.11
35716;BME280;21840;44.920;8.616;2023-02-22T07:36:00;100675.78;;;14.75;48.46
35716;BME280;21840;44.920;8.616;2023-02-22T07:38:25;100672.38;;;14.82;48.37
35716;BME280;21840;44.920;8.616;2023-02-22T07:40:51;100673.16;;;14.75;48.55
35716;BME280;21840;44.920;8.616;2023-02-22T07:43:21;100676.72;;;14.48;49.16
35716;BME280;21840;44.920;8.616;2023-02-22T07:45:48;100675.03;;;14.82;48.39
35716;BME280;21840;44.920;8.616;2023-02-22T07:48:15;100682.78;;;15.10;47.33
35716;BME280;21840;44.920;8.616;2023-02-22T07:50:41;100679.53;;;15.16;46.99
35716;BME280;21840;44.920;8.616;2023-02-22T07:53:11;100676.91;;;15.16;46.71
35716;BME280;21840;44.920;8.616;2023-02-22T07:55:37;100671.75;;;15.15;46.46
35716;BME280;21840;44.920;8.616;2023-02-22T07:58:07;100681.25;;;15.25;46.42
35716;BME280;21840;44.920;8.616;2023-02-22T08:00:35;100681.66;;;15.39;46.17
35716;BME280;21840;44.920;8.616;2023-02-22T08:03:03;100666.16;;;15.18;46.67
35716;BME280;21840;44.920;8.616;2023-02-22T08:05:29;100671.28;;;15.19;46.87
35716;BME280;21840;44.920;8.616;2023-02-22T08:07:56;100670.06;;;14.79;47.59
35716;BME280;21840;44.920;8.616;2023-02-22T08:10:23;100675.66;;;15.02;47.27
35716;BME280;21840;44.920;8.616;2023-02-22T08:12:49;100676.19;;;15.06;46.97
35716;BME280;21840;44.920;8.616;2023-02-22T08:15:17;100681.44;;;14.98;47.14
35716;BME280;21840;44.920;8.616;2023-02-22T08:17:43;100676.66;;;14.75;47.68
35716;BME280;21840;44.920;8.616;2023-02-22T08:20:09;100676.94;;;14.72;48.03
35716;BME280;21840;44.920;8.616;2023-02-22T08:22:34;100672.88;;;14.60;48.18
35716;BME280;21840;44.920;8.616;2023-02-22T08:25:00;100669.63;;;14.92;47.72
35716;BME280;21840;44.920;8.616;2023-02-22T08:27:27;100674.50;;;15.05;47.84
35716;BME280;21840;44.920;8.616;2023-02-22T08:29:54;100672.22;;;15.10;47.50
35716;BME280;21840;44.920;8.616;2023-02-22T08:32:22;100668.69;;;15.27;47.32
35716;BME280;21840;44.920;8.616;2023-02-22T08:34:48;100670.53;;;15.01;47.83
35716;BME280;21840;44.920;8.616;2023-02-22T08:37:16;100661.91;;;14.99;47.56
35716;BME280;21840;44.920;8.616;2023-02-22T08:39:42;100665.81;;;15.13;47.43
35716;BME280;21840;44.920;8.616;2023-02-22T08:42:08;100663.41;;;15.01;47.86
35716;BME280;21840;44.920;8.616;2023-02-22T08:44:35;100664.53;;;15.25;47.41
35716;BME280;21840;44.920;8.616;2023-02-22T08:47:01;100667.59;;;15.12;47.50
35716;BME280;21840;44.920;8.616;2023-02-22T08:49:27;100659.38;;;15.15;47.45
35716;BME280;21840;44.920;8.616;2023-02-22T08:51:52;100669.41;;;15.38;47.24
35716;BME280;21840;44.920;8.616;2023-02-22T08:54:18;100665.69;;;15.22;47.48
35716;BME280;21840;44.920;8.616;2023-02-22T08:56:43;100663.41;;;15.70;46.57
35716;BME280;21840;44.920;8.616;2023-02-22T08:59:09;100658.41;;;15.59;46.84
35716;BME280;21840;44.920;8.616;2023-02-22T09:01:35;100659.94;;;15.69;46.58
35716;BME280;21840;44.920;8.616;2023-02-22T09:04:01;100656.22;;;15.46;47.19
35716;BME280;21840;44.920;8.616;2023-02-22T09:06:27;100656.78;;;15.66;47.06
35716;BME280;21840;44.920;8.616;2023-02-22T09:08:53;100653.59;;;15.62;46.88
35716;BME280;21840;44.920;8.616;2023-02-22T09:11:18;100651.78;;;16.05;46.29
35716;BME280;21840;44.920;8.616;2023-02-22T09:13:44;100655.38;;;15.96;46.47
35716;BME280;21840;44.920;8.616;2023-02-22T09:16:10;100658.75;;;16.23;45.90
35716;BME280;21840;44.920;8.616;2023-02-22T09:18:35;100653.09;;;16.34;45.88
35716;BME280;21840;44.920;8.616;2023-02-22T09:21:02;100646.50;;;16.63;45.37
35716;BME280;21840;44.920;8.616;2023-02-22T09:23:27;100655.78;;;16.50;45.33
35716;BME280;21840;44.920;8.616;2023-02-22T09:25:54;100659.09;;;16.85;44.73
35716;BME280;21840;44.920;8.616;2023-02-22T09:28:19;100655.13;;;16.40;45.39
35716;BME280;21840;44.920;8.616;2023-02-22T09:30:45;100655.44;;;16.53;44.83
35716;BME280;21840;44.920;8.616;2023-02-22T09:33:14;100651.78;;;16.30;45.63
35716;BME280;21840;44.920;8.616;2023-02-22T09:35:41;100649.63;;;16.50;44.97
35716;BME280;21840;44.920;8.616;2023-02-22T09:38:07;100655.09;;;16.73;44.48
35716;BME280;21840;44.920;8.616;2023-02-22T09:40:36;100646.66;;;16.28;45.68
35716;BME280;21840;44.920;8.616;2023-02-22T09:43:55;100652.13;;;16.51;45.25
35716;BME280;21840;44.920;8.616;2023-02-22T09:51:51;100658.56;;;16.57;44.96
35716;BME280;21840;44.920;8.616;2023-02-22T09:54:31;100659.72;;;16.87;44.51
35716;BME280;21840;44.920;8.616;2023-02-22T09:57:01;100658.09;;;16.78;44.30
35716;BME280;21840;44.920;8.616;2023-02-22T09:59:36;100657.59;;;16.83;44.27
35716;BME280;21840;44.920;8.616;2023-02-22T10:02:31;100652.66;;;17.35;43.75
35716;BME280;21840;44.920;8.616;2023-02-22T10:05:05;100655.63;;;17.32;44.16
35716;BME280;21840;44.920;8.616;2023-02-22T10:07:40;100649.38;;;17.17;44.54
35716;BME280;21840;44.920;8.616;2023-02-22T10:10:20;100648.91;;;17.53;43.37
35716;BME280;21840;44.920;8.616;2023-02-22T10:13:10;100653.63;;;17.42;43.51
35716;BME280;21840;44.920;8.616;2023-02-22T10:15:55;100645.75;;;17.10;44.21
35716;BME280;21840;44.920;8.616;2023-02-22T10:23:59;100647.66;;;17.40;43.38
35716;BME280;21840;44.920;8.616;2023-02-22T10:26:32;100649.53;;;17.94;42.52
35716;BME280;21840;44.920;8.616;2023-02-22T10:29:09;100644.59;;;17.52;43.11
35716;BME280;21840;44.920;8.616;2023-02-22T10:31:45;100651.44;;;17.46;43.19
35716;BME280;21840;44.920;8.616;2023-02-22T10:34:19;100642.53;;;17.31;43.64
35716;BME280;21840;44.920;8.616;2023-02-22T10:36:48;100641.41;;;17.96;42.77
35716;BME280;21840;44.920;8.616;2023-02-22T10:39:27;100636.47;;;18.53;41.56
35716;BME280;21840;44.920;8.616;2023-02-22T10:41:57;100644.69;;;18.44;41.12
35716;BME280;21840;44.920;8.616;2023-02-22T10:44:33;100632.44;;;18.58;41.25
35716;BME280;21840;44.920;8.616;2023-02-22T10:47:01;100638.63;;;18.73;40.82
35716;BME280;21840;44.920;8.616;2023-02-22T10:49:33;100630.47;;;19.04;40.40
35716;BME280;21840;44.920;8.616;2023-02-22T10:52:02;100631.09;;;18.77;40.89
35716;BME280;21840;44.920;8.616;2023-02-22T10:54:33;100630.56;;;18.43;41.69
35716;BME280;21840;44.920;8.616;2023-02-22T10:57:00;100626.56;;;18.01;41.79
35716;BME280;21840;44.920;8.616;2023-02-22T10:59:34;100629.97;;;17.87;42.21
35716;BME280;21840;44.920;8.616;2023-02-22T11:02:08;100624.59;;;18.79;40.76
35716;BME280;21840;44.920;8.616;2023-02-22T11:04:53;100615.63;;;18.95;40.43
35716;BME280;21840;44.920;8.616;2023-02-22T11:07:27;100615.81;;;18.93;40.73
35716;BME280;21840;44.920;8.616;2023-02-22T11:09:56;100609.47;;;18.80;40.79
35716;BME280;21840;44.920;8.616;2023-02-22T11:12:36;100607.63;;;19.25;40.21
35716;BME280;21840;44.920;8.616;2023-02-22T11:17:52;100608.00;;;19.07;40.16
35716;BME280;21840;44.920;8.616;2023-02-22T11:20:27;100605.25;;;19.15;40.39
35716;BME280;21840;44.920;8.616;2023-02-22T11:22:56;100604.22;;;19.31;40.02
35716;BME280;21840;44.920;8.616;2023-02-22T11:25:28;100597.53;;;19.56;39.52
35716;BME280;21840;44.920;8.616;2023-02-22T11:28:08;100597.34;;;19.94;39.14
35716;BME280;21840;44.920;8.616;2023-02-22T11:30:35;100591.19;;;19.94;39.03
35716;BME280;21840;44.920;8.616;2023-02-22T11:35:48;100569.94;;;20.00;38.83
35716;BME280;21840;44.920;8.616;2023-02-22T11:38:23;100571.41;;;19.81;39.25
35716;BME280;21840;44.920;8.616;2023-02-22T11:43:46;100561.31;;;19.98;39.14
35716;BME280;21840;44.920;8.616;2023-02-22T11:46:22;100555.31;;;20.18;38.68
35716;BME280;21840;44.920;8.616;2023-02-22T11:49:02;100557.53;;;20.14;38.91
35716;BME280;21840;44.920;8.616;2023-02-22T11:51:43;100547.31;;;19.90;39.20
35716;BME280;21840;44.920;8.616;2023-02-22T11:54:18;100545.56;;;20.03;39.07
35716;BME280;21840;44.920;8.616;2023-02-22T11:57:04;100542.00;;;19.53;40.25
35716;BME280;21840;44.920;8.616;2023-02-22T12:05:46;100537.28;;;20.20;39.07
35716;BME280;21840;44.920;8.616;2023-02-22T12:19:53;100520.69;;;20.87;37.03
35716;BME280;21840;44.920;8.616;2023-02-22T12:22:27;100518.75;;;21.16;36.45
35716;BME280;21840;44.920;8.616;2023-02-22T12:24:59;100515.06;;;21.17;36.40
35716;BME280;21840;44.920;8.616;2023-02-22T12:27:27;100511.16;;;21.20;36.66
35716;BME280;21840;44.920;8.616;2023-02-22T12:30:12;100501.25;;;21.82;35.44
35716;BME280;21840;44.920;8.616;2023-02-22T12:32:49;100504.47;;;20.82;37.14
35716;BME280;21840;44.920;8.616;2023-02-22T12:40:41;100497.53;;;21.69;35.67
35716;BME280;21840;44.920;8.616;2023-02-22T12:43:35;100489.28;;;21.97;35.47
35716;BME280;21840;44.920;8.616;2023-02-22T12:46:12;100494.16;;;22.54;34.41
35716;BME280;21840;44.920;8.616;2023-02-22T12:51:44;100494.19;;;22.47;34.53
35716;BME280;21840;44.920;8.616;2023-02-22T13:00:04;100477.34;;;22.13;34.97
35716;BME280;21840;44.920;8.616;2023-02-22T13:02:46;100478.19;;;22.01;35.23
35716;BME280;21840;44.920;8.616;2023-02-22T13:05:16;100469.16;;;22.02;34.99
35716;BME280;21840;44.920;8.616;2023-02-22T13:10:28;100470.97;;;22.01;35.13
35716;BME280;21840;44.920;8.616;2023-02-22T13:13:28;100464.41;;;21.50;35.89
35716;BME280;21840;44.920;8.616;2023-02-22T13:19:10;100456.81;;;21.81;35.50
35716;BME280;21840;44.920;8.616;2023-02-22T13:22:04;100453.13;;;21.62;35.66
35716;BME280;21840;44.920;8.616;2023-02-22T13:27:19;100447.44;;;21.03;35.96
35716;BME280;21840;44.920;8.616;2023-02-22T13:29:48;100444.88;;;21.57;35.38
35716;BME280;21840;44.920;8.616;2023-02-22T13:38:04;100433.78;;;21.66;35.41
35716;BME280;21840;44.920;8.616;2023-02-22T13:52:00;100431.28;;;22.05;34.73
35716;BME280;21840;44.920;8.616;2023-02-22T13:57:26;100432.09;;;22.32;34.29
35716;BME280;21840;44.920;8.616;2023-02-22T14:00:23;100430.41;;;22.31;34.45
35716;BME280;21840;44.920;8.616;2023-02-22T14:08:05;100420.59;;;21.98;35.10
35716;BME280;21840;44.920;8.616;2023-02-22T14:10:50;100412.19;;;21.74;35.48
35716;BME280;21840;44.920;8.616;2023-02-22T14:13:18;100416.09;;;21.79;35.46
35716;BME280;21840;44.920;8.616;2023-02-22T14:18:23;100411.53;;;21.32;36.22
35716;BME280;21840;44.920;8.616;2023-02-22T14:21:10;100414.81;;;21.28;36.52
35716;BME280;21840;44.920;8.616;2023-02-22T14:24:05;100404.38;;;21.53;36.12
35716;BME280;21840;44.920;8.616;2023-02-22T14:26:36;100409.28;;;21.36;36.27
35716;BME280;21840;44.920;8.616;2023-02-22T14:31:57;100402.34;;;21.62;36.01
35716;BME280;21840;44.920;8.616;2023-02-22T14:34:42;100415.84;;;22.00;35.15
35716;BME280;21840;44.920;8.616;2023-02-22T14:37:18;100411.50;;;22.12;35.01
35716;BME280;21840;44.920;8.616;2023-02-22T14:39:48;100412.06;;;22.48;34.66
35716;BME280;21840;44.920;8.616;2023-02-22T14:42:35;100407.41;;;22.23;35.10
35716;BME280;21840;44.920;8.616;2023-02-22T14:45:23;100402.41;;;22.33;34.70
35716;BME280;21840;44.920;8.616;2023-02-22T14:48:00;100404.34;;;22.20;34.68
35716;BME280;21840;44.920;8.616;2023-02-22T14:58:33;100407.41;;;21.96;35.05
35716;BME280;21840;44.920;8.616;2023-02-22T15:03:44;100402.75;;;21.65;35.56
35716;BME280;21840;44.920;8.616;2023-02-22T15:06:17;100397.19;;;21.60;35.51
35716;BME280;21840;44.920;8.616;2023-02-22T15:08:44;100396.94;;;21.28;36.06
35716;BME280;21840;44.920;8.616;2023-02-22T15:11:27;100390.38;;;21.24;36.39
35716;BME280;21840;44.920;8.616;2023-02-22T15:13:57;100400.56;;;20.94;37.08